Time;durP1;ratioP1;P1;durP2;ratioP2;P2;SDS_P1;SDS_P2;PMS_P1;PMS_P2;Temp;Humidity;BMP_temperature;BMP_pressure;BME280_temperature;BME280_humidity;BME280_pressure;Samples;Min_cycle;Max_cycle;Signal;HPM_P1;HPM_P2
2021/10/17 00:00:19;;;;;;;22.73;7.97;;;8.60;97.30;;;;;;5037693;28;20428;-82
2021/10/17 00:02:46;;;;;;;20.60;6.63;;;8.60;97.30;;;;;;5036740;28;20987;-82
2021/10/17 00:05:12;;;;;;;20.30;7.33;;;8.50;97.30;;;;;;5036806;28;20464;-82
2021/10/17 00:07:38;;;;;;;17.33;7.40;;;8.50;97.30;;;;;;5035938;28;20989;-83
2021/10/17 00:10:08;;;;;;;14.17;8.63;;;8.50;97.30;;;;;;5018276;28;20412;-83
2021/10/17 00:12:34;;;;;;;13.13;7.17;;;8.50;97.30;;;;;;5016085;28;20514;-84
2021/10/17 00:15:00;;;;;;;15.70;7.30;;;8.50;97.30;;;;;;5017343;28;20427;-82
2021/10/17 00:17:25;;;;;;;19.47;7.30;;;8.50;97.30;;;;;;5017038;28;20443;-82
2021/10/17 00:19:51;;;;;;;10.53;6.60;;;8.50;97.30;;;;;;5016250;28;20258;-81
2021/10/17 00:22:17;;;;;;;11.40;6.90;;;8.50;97.30;;;;;;5015851;28;20243;-83
2021/10/17 00:24:43;;;;;;;16.97;7.10;;;8.60;97.30;;;;;;5016327;28;20972;-83
2021/10/17 00:27:08;;;;;;;16.27;7.87;;;8.60;97.30;;;;;;5017119;28;20215;-84
2021/10/17 00:29:34;;;;;;;11.63;7.10;;;8.60;97.30;;;;;;5016863;28;20186;-84
2021/10/17 00:32:00;;;;;;;16.40;6.60;;;8.60;97.30;;;;;;5016414;28;20214;-83
2021/10/17 00:34:26;;;;;;;15.83;5.93;;;8.60;97.30;;;;;;5016262;28;20200;-83
2021/10/17 00:36:52;;;;;;;13.73;6.67;;;8.60;97.30;;;;;;5016560;28;20423;-83
2021/10/17 00:39:18;;;;;;;20.63;6.67;;;8.50;97.30;;;;;;5016282;28;20835;-83
2021/10/17 00:41:45;;;;;;;15.83;6.80;;;8.60;97.30;;;;;;5034475;28;20183;-84
2021/10/17 00:44:20;;;;;;;11.50;6.30;;;8.60;97.30;;;;;;5016421;28;20214;-82
2021/10/17 00:46:45;;;;;;;11.90;6.87;;;8.50;97.30;;;;;;5016078;28;20402;-81
2021/10/17 00:49:11;;;;;;;17.50;6.20;;;8.50;97.30;;;;;;5016486;28;20434;-82
2021/10/17 00:51:36;;;;;;;15.17;6.70;;;8.50;97.30;;;;;;5033917;28;20172;-82
2021/10/17 00:54:02;;;;;;;13.23;6.83;;;8.50;97.30;;;;;;5016772;28;20263;-84
2021/10/17 00:56:28;;;;;;;13.73;7.50;;;8.50;97.30;;;;;;5016573;28;20202;-82
2021/10/17 00:58:53;;;;;;;15.23;6.10;;;8.50;97.30;;;;;;5016340;28;20422;-82
2021/10/17 01:01:19;;;;;;;9.83;6.00;;;8.50;97.30;;;;;;5034379;28;20188;-82
2021/10/17 01:03:45;;;;;;;9.63;5.70;;;8.50;97.30;;;;;;5016996;28;20243;-82
2021/10/17 01:06:12;;;;;;;13.13;6.13;;;8.50;97.30;;;;;;5017096;28;20217;-82
2021/10/17 01:08:39;;;;;;;16.93;7.10;;;8.50;97.30;;;;;;5016386;28;20177;-83
2021/10/17 01:11:05;;;;;;;16.57;7.07;;;8.50;97.30;;;;;;5017055;28;20419;-81
2021/10/17 01:13:30;;;;;;;11.23;6.10;;;8.50;97.30;;;;;;5016238;28;21075;-81
2021/10/17 01:15:57;;;;;;;12.53;5.70;;;8.50;97.30;;;;;;5033966;28;20226;-82
2021/10/17 01:18:24;;;;;;;11.83;6.10;;;8.50;97.30;;;;;;5016976;28;20238;-85
2021/10/17 01:20:51;;;;;;;12.43;6.80;;;8.50;97.30;;;;;;5034191;28;20506;-83
2021/10/17 01:23:19;;;;;;;16.57;6.50;;;8.50;97.30;;;;;;5016543;28;21008;-82
2021/10/17 01:25:45;;;;;;;12.90;6.27;;;8.50;97.30;;;;;;5015722;28;20439;-83
2021/10/17 01:28:12;;;;;;;12.80;6.10;;;8.50;97.30;;;;;;5015732;28;20854;-82
2021/10/17 01:30:37;;;;;;;11.57;5.40;;;8.50;97.30;;;;;;5015341;28;20437;-83
2021/10/17 01:33:03;;;;;;;14.47;6.50;;;8.50;97.30;;;;;;5015370;28;20791;-82
2021/10/17 01:35:29;;;;;;;11.63;5.93;;;8.50;97.30;;;;;;5014489;28;20200;-82
2021/10/17 01:37:54;;;;;;;12.03;6.40;;;8.50;97.30;;;;;;5032808;28;20493;-82
2021/10/17 01:40:20;;;;;;;19.93;7.00;;;8.50;97.30;;;;;;5015525;28;20235;-83
2021/10/17 01:42:46;;;;;;;13.70;5.93;;;8.50;97.30;;;;;;5032870;28;20282;-85
2021/10/17 01:45:12;;;;;;;13.87;6.10;;;8.50;97.30;;;;;;5015698;28;20227;-83
2021/10/17 01:47:43;;;;;;;11.90;5.97;;;8.50;97.30;;;;;;5032839;28;20169;-84
2021/10/17 01:50:09;;;;;;;14.07;6.80;;;8.40;97.30;;;;;;5032407;28;20426;-82
2021/10/17 01:52:34;;;;;;;19.87;6.53;;;8.40;97.30;;;;;;5051568;28;20406;-83
2021/10/17 01:55:00;;;;;;;14.37;7.43;;;8.50;97.30;;;;;;5033680;28;20665;-83
2021/10/17 01:57:25;;;;;;;10.70;7.13;;;8.40;97.30;;;;;;5033784;28;20603;-82
2021/10/17 01:59:51;;;;;;;12.77;6.10;;;8.40;97.30;;;;;;5033020;28;20176;-83
2021/10/17 02:02:16;;;;;;;11.40;6.07;;;8.40;97.30;;;;;;5035267;28;20176;-83
2021/10/17 02:04:42;;;;;;;15.70;6.50;;;8.40;97.30;;;;;;5036862;28;20211;-83
2021/10/17 02:07:08;;;;;;;11.53;6.60;;;8.40;97.30;;;;;;5022162;28;20176;-82
2021/10/17 02:09:33;;;;;;;10.97;6.23;;;8.40;97.30;;;;;;5018673;28;20181;-83
2021/10/17 02:11:59;;;;;;;13.40;6.40;;;8.40;97.30;;;;;;5018580;28;20183;-82
2021/10/17 02:14:25;;;;;;;10.30;5.80;;;8.40;97.30;;;;;;5018347;28;20657;-83
2021/10/17 02:16:50;;;;;;;11.60;5.93;;;8.40;97.30;;;;;;5018182;28;20422;-82
2021/10/17 02:19:16;;;;;;;13.27;6.50;;;8.30;97.30;;;;;;5018763;28;20723;-82
2021/10/17 02:21:41;;;;;;;9.83;6.07;;;8.30;97.30;;;;;;5018710;28;20566;-82
2021/10/17 02:24:10;;;;;;;16.73;6.60;;;8.30;97.30;;;;;;5018725;28;20208;-82
2021/10/17 02:26:37;;;;;;;17.00;7.33;;;8.30;97.30;;;;;;5036692;28;20165;-82
2021/10/17 02:29:03;;;;;;;13.40;5.90;;;8.30;97.30;;;;;;5017895;28;20419;-82
2021/10/17 02:31:28;;;;;;;15.73;7.53;;;8.20;97.30;;;;;;5017590;28;20463;-82
2021/10/17 02:33:54;;;;;;;16.80;6.40;;;8.20;97.30;;;;;;5017952;28;20713;-82
2021/10/17 02:36:19;;;;;;;19.63;6.10;;;8.20;97.30;;;;;;5036375;28;20184;-84
2021/10/17 02:38:45;;;;;;;11.00;5.30;;;8.20;97.30;;;;;;5018586;28;20408;-83
2021/10/17 02:41:10;;;;;;;11.00;5.87;;;8.20;97.30;;;;;;5036969;28;20176;-83
2021/10/17 02:43:36;;;;;;;10.07;5.10;;;8.20;97.30;;;;;;5020507;28;20201;-82
2021/10/17 02:46:02;;;;;;;14.60;5.97;;;8.20;97.30;;;;;;5038407;28;20181;-81
2021/10/17 02:48:27;;;;;;;11.60;6.40;;;8.20;97.30;;;;;;5020227;28;20183;-82
2021/10/17 02:50:53;;;;;;;11.80;5.80;;;8.20;97.30;;;;;;5020415;28;20748;-83
2021/10/17 02:53:18;;;;;;;14.13;6.20;;;8.20;97.30;;;;;;5019938;28;20203;-83
2021/10/17 02:55:44;;;;;;;12.80;6.30;;;8.20;97.30;;;;;;5020065;28;20227;-82
2021/10/17 02:58:10;;;;;;;10.87;6.27;;;8.10;97.30;;;;;;5020514;28;20706;-83
2021/10/17 03:00:35;;;;;;;18.63;6.60;;;8.10;97.30;;;;;;5019155;28;20208;-82
2021/10/17 03:03:01;;;;;;;12.40;5.70;;;8.10;97.30;;;;;;5019959;28;20689;-83
2021/10/17 03:05:27;;;;;;;10.07;5.40;;;8.10;97.30;;;;;;5019438;28;20430;-81
2021/10/17 03:07:52;;;;;;;10.27;5.77;;;8.10;97.30;;;;;;5017922;28;20544;-85
2021/10/17 03:10:18;;;;;;;11.40;5.80;;;8.10;97.30;;;;;;5017538;28;20303;-83
2021/10/17 03:12:44;;;;;;;11.30;5.97;;;8.10;97.30;;;;;;5017302;28;20187;-83
2021/10/17 03:15:09;;;;;;;10.73;5.70;;;8.00;97.30;;;;;;5016473;28;20658;-84
2021/10/17 03:17:35;;;;;;;9.80;5.60;;;8.10;97.30;;;;;;5034803;28;20187;-82
2021/10/17 03:20:02;;;;;;;16.73;7.73;;;8.00;97.30;;;;;;5016231;28;20181;-82
2021/10/17 03:22:27;;;;;;;12.53;5.70;;;8.00;97.30;;;;;;5017023;28;21015;-82
2021/10/17 03:24:53;;;;;;;19.40;6.03;;;8.00;97.30;;;;;;5017946;28;20431;-83
2021/10/17 03:27:18;;;;;;;10.50;5.87;;;8.00;97.30;;;;;;5017719;28;20593;-82
2021/10/17 03:29:44;;;;;;;10.07;5.63;;;8.00;97.30;;;;;;5017584;28;20177;-83
2021/10/17 03:32:10;;;;;;;17.53;7.63;;;8.10;97.30;;;;;;5034743;28;20165;-83
2021/10/17 03:34:35;;;;;;;13.07;5.37;;;8.10;97.30;;;;;;5033930;28;20268;-81
2021/10/17 03:37:01;;;;;;;14.63;6.20;;;8.10;97.30;;;;;;5017552;28;20187;-82
2021/10/17 03:39:26;;;;;;;15.93;5.83;;;8.00;97.30;;;;;;5017292;28;20176;-83
2021/10/17 03:41:52;;;;;;;11.70;6.37;;;8.00;97.30;;;;;;5016044;28;20199;-83
2021/10/17 03:44:18;;;;;;;14.63;8.70;;;8.00;97.30;;;;;;5016980;28;20208;-84
2021/10/17 03:46:43;;;;;;;11.97;5.80;;;8.00;97.30;;;;;;5016945;28;20176;-82
2021/10/17 03:49:09;;;;;;;12.70;7.60;;;7.90;97.30;;;;;;5016460;28;20411;-83
2021/10/17 03:51:35;;;;;;;12.23;5.90;;;7.90;97.30;;;;;;5016592;28;20192;-85
2021/10/17 03:54:01;;;;;;;14.03;5.70;;;7.80;97.30;;;;;;5034050;28;20276;-82
2021/10/17 03:56:26;;;;;;;9.53;5.90;;;7.80;97.30;;;;;;5016676;28;20191;-83
2021/10/17 03:58:52;;;;;;;13.60;5.20;;;7.70;97.30;;;;;;5016661;28;20469;-82
2021/10/17 04:01:17;;;;;;;10.20;6.00;;;7.70;97.30;;;;;;5016197;28;20176;-82
2021/10/17 04:03:43;;;;;;;13.43;6.47;;;7.60;97.30;;;;;;5033605;28;20212;-82
2021/10/17 04:06:08;;;;;;;13.07;6.83;;;7.60;97.30;;;;;;5032975;28;20176;-83
2021/10/17 04:08:34;;;;;;;12.50;6.10;;;7.60;97.30;;;;;;5032801;28;20188;-84
2021/10/17 04:11:00;;;;;;;17.90;6.73;;;7.60;97.30;;;;;;5023692;28;20256;-82
2021/10/17 04:13:25;;;;;;;19.57;6.07;;;7.70;97.30;;;;;;5016459;28;20211;-82
2021/10/17 04:15:51;;;;;;;10.63;5.00;;;7.60;97.30;;;;;;5016425;28;20176;-83
2021/10/17 04:18:16;;;;;;;12.83;6.07;;;7.60;97.30;;;;;;5016249;28;20208;-82
2021/10/17 04:20:42;;;;;;;15.13;6.20;;;7.60;97.30;;;;;;5016667;28;20295;-82
2021/10/17 04:23:08;;;;;;;12.43;6.17;;;7.60;97.30;;;;;;5016386;28;20235;-82
2021/10/17 04:25:34;;;;;;;13.07;6.30;;;7.60;97.30;;;;;;5016060;28;20204;-83
2021/10/17 04:28:00;;;;;;;16.07;7.27;;;7.70;97.30;;;;;;5015930;28;20415;-82
2021/10/17 04:30:26;;;;;;;11.30;7.03;;;7.60;97.30;;;;;;5016585;28;20824;-82
2021/10/17 04:32:52;;;;;;;11.47;6.33;;;7.60;97.30;;;;;;5016023;28;20435;-83
2021/10/17 04:35:17;;;;;;;12.77;6.10;;;7.60;97.30;;;;;;5015822;28;20724;-82
2021/10/17 04:37:43;;;;;;;14.30;6.03;;;7.50;97.30;;;;;;5015939;28;20193;-82
2021/10/17 04:40:10;;;;;;;11.70;5.70;;;7.50;97.30;;;;;;5016601;28;20195;-82
2021/10/17 04:42:37;;;;;;;11.63;6.20;;;7.50;97.30;;;;;;5033843;28;20183;-83
2021/10/17 04:45:06;;;;;;;17.10;6.83;;;7.50;97.30;;;;;;5015305;28;20495;-84
2021/10/17 04:47:34;;;;;;;19.27;7.87;;;7.50;97.30;;;;;;5014873;28;20412;-82
2021/10/17 04:50:00;;;;;;;14.57;6.83;;;7.50;97.30;;;;;;5032808;28;20414;-83
2021/10/17 04:52:25;;;;;;;11.17;6.53;;;7.50;97.30;;;;;;5037032;28;20406;-83
2021/10/17 04:54:51;;;;;;;17.40;9.07;;;7.50;97.30;;;;;;5055265;28;20487;-82
2021/10/17 04:57:17;;;;;;;18.93;7.33;;;7.50;97.30;;;;;;5037697;28;20184;-83
2021/10/17 04:59:42;;;;;;;20.67;7.70;;;7.50;97.30;;;;;;5036731;28;20179;-84
2021/10/17 05:02:08;;;;;;;13.50;6.80;;;7.50;97.30;;;;;;5035629;28;20545;-83
2021/10/17 05:04:38;;;;;;;16.67;7.07;;;7.50;97.30;;;;;;5035241;28;20700;-83
2021/10/17 05:07:04;;;;;;;15.80;6.17;;;7.50;97.30;;;;;;5036279;28;20215;-83
2021/10/17 05:09:29;;;;;;;12.10;6.60;;;7.50;97.30;;;;;;5037119;28;20418;-82
2021/10/17 05:11:55;;;;;;;11.03;6.10;;;7.50;97.30;;;;;;5036027;28;20406;-81
2021/10/17 05:14:21;;;;;;;11.23;6.13;;;7.50;97.30;;;;;;5035272;28;20245;-83
2021/10/17 05:16:46;;;;;;;11.00;6.17;;;7.50;97.30;;;;;;5035325;28;20187;-81
2021/10/17 05:19:12;;;;;;;15.87;7.33;;;7.40;97.30;;;;;;5028585;28;20669;-82
2021/10/17 05:21:38;;;;;;;14.57;7.73;;;7.40;97.30;;;;;;5033481;28;20222;-82
2021/10/17 05:24:04;;;;;;;15.00;7.60;;;7.40;97.30;;;;;;5018497;28;20212;-83
2021/10/17 05:26:33;;;;;;;10.67;5.60;;;7.30;97.30;;;;;;5020690;28;20169;-85
2021/10/17 05:29:00;;;;;;;18.40;6.40;;;7.30;97.30;;;;;;5021510;28;20486;-82
2021/10/17 05:31:27;;;;;;;14.60;6.93;;;7.30;97.30;;;;;;5020924;28;20445;-83
2021/10/17 05:33:53;;;;;;;12.27;6.50;;;7.20;97.30;;;;;;5020690;28;20537;-83
2021/10/17 05:36:18;;;;;;;14.80;6.10;;;7.10;97.30;;;;;;5019095;28;20894;-82
2021/10/17 05:38:44;;;;;;;11.87;7.00;;;7.10;97.30;;;;;;5026299;28;20187;-82
2021/10/17 05:41:10;;;;;;;13.43;6.77;;;7.10;97.30;;;;;;5023050;28;20188;-82
2021/10/17 05:43:35;;;;;;;15.53;6.53;;;7.10;97.30;;;;;;5023048;28;20494;-82
2021/10/17 05:46:01;;;;;;;11.90;6.10;;;7.00;97.30;;;;;;5028164;28;20259;-82
2021/10/17 05:48:28;;;;;;;11.57;6.47;;;7.00;97.30;;;;;;5059542;28;20186;-83
2021/10/17 05:50:53;;;;;;;10.93;6.40;;;7.00;97.30;;;;;;5035421;28;20833;-81
2021/10/17 05:53:19;;;;;;;16.43;6.80;;;6.90;97.30;;;;;;5031295;28;20426;-82
2021/10/17 05:55:45;;;;;;;13.30;6.30;;;6.90;97.30;;;;;;5024593;28;20257;-82
2021/10/17 05:58:10;;;;;;;13.03;6.03;;;6.90;97.30;;;;;;5029274;28;20175;-82
2021/10/17 06:00:36;;;;;;;14.70;6.53;;;6.90;97.30;;;;;;5028668;28;20190;-82
2021/10/17 06:03:02;;;;;;;13.27;5.60;;;6.90;97.30;;;;;;5022578;28;20199;-82
2021/10/17 06:05:28;;;;;;;12.03;6.53;;;6.90;97.30;;;;;;5026361;28;20206;-82
2021/10/17 06:07:54;;;;;;;29.57;7.23;;;6.90;97.30;;;;;;5028769;28;20549;-82
2021/10/17 06:10:20;;;;;;;15.03;6.23;;;6.90;97.30;;;;;;5028294;28;20172;-82
2021/10/17 06:12:46;;;;;;;13.17;6.73;;;7.00;97.30;;;;;;5044256;28;20453;-82
2021/10/17 06:15:11;;;;;;;14.03;6.10;;;7.00;97.30;;;;;;5043586;28;20295;-82
2021/10/17 06:17:37;;;;;;;14.83;5.87;;;7.00;97.30;;;;;;5028659;28;20181;-82
2021/10/17 06:20:06;;;;;;;13.90;6.70;;;7.00;97.30;;;;;;5024496;28;20253;-82
2021/10/17 06:22:32;;;;;;;12.50;6.10;;;7.10;97.30;;;;;;5033095;28;20557;-82
2021/10/17 06:24:57;;;;;;;13.50;5.87;;;7.10;97.30;;;;;;5031419;28;20521;-82
2021/10/17 06:27:23;;;;;;;9.97;5.30;;;7.10;97.30;;;;;;5024815;28;20209;-82
2021/10/17 06:29:48;;;;;;;11.93;5.80;;;7.10;97.30;;;;;;5027445;28;20179;-82
2021/10/17 06:32:14;;;;;;;12.33;6.30;;;7.10;97.30;;;;;;5033269;28;20183;-82
2021/10/17 06:34:40;;;;;;;12.23;5.83;;;7.10;97.30;;;;;;5026660;28;20287;-82
2021/10/17 06:37:05;;;;;;;13.07;6.20;;;7.20;97.30;;;;;;5023349;28;20189;-84
2021/10/17 06:39:31;;;;;;;11.43;5.60;;;7.20;97.30;;;;;;5026167;28;20183;-83
2021/10/17 06:41:57;;;;;;;10.97;5.47;;;7.20;97.30;;;;;;5032177;28;20176;-85
2021/10/17 06:44:23;;;;;;;15.60;6.10;;;7.30;97.30;;;;;;5032109;28;20204;-84
2021/10/17 06:46:50;;;;;;;13.90;6.30;;;7.30;97.30;;;;;;5027840;28;20182;-83
2021/10/17 06:49:16;;;;;;;17.47;6.30;;;7.40;97.30;;;;;;5043836;28;20434;-83
2021/10/17 06:51:42;;;;;;;9.53;4.93;;;7.50;97.30;;;;;;5027415;28;20481;-83
2021/10/17 06:54:07;;;;;;;14.13;5.57;;;7.60;97.30;;;;;;5023456;28;20443;-83
2021/10/17 06:56:34;;;;;;;18.80;6.10;;;7.70;97.30;;;;;;5027619;28;20428;-83
2021/10/17 06:58:59;;;;;;;9.43;5.43;;;7.80;97.30;;;;;;5027335;28;20176;-83
2021/10/17 07:01:25;;;;;;;14.37;6.07;;;7.90;97.30;;;;;;5027266;28;20419;-83
2021/10/17 07:03:50;;;;;;;16.90;5.90;;;7.90;97.30;;;;;;5040617;28;20334;-82
2021/10/17 07:06:16;;;;;;;10.13;5.53;;;8.00;97.30;;;;;;5020991;28;20244;-83
2021/10/17 07:08:42;;;;;;;7.73;4.53;;;8.10;97.30;;;;;;5024421;28;20187;-82
2021/10/17 07:11:08;;;;;;;10.67;5.90;;;8.20;97.30;;;;;;5038301;28;20259;-82
2021/10/17 07:13:34;;;;;;;14.70;5.27;;;8.30;97.30;;;;;;5028118;28;20185;-83
2021/10/17 07:15:59;;;;;;;17.10;5.33;;;8.40;97.30;;;;;;5049036;28;20426;-82
2021/10/17 07:18:25;;;;;;;6.23;4.40;;;8.50;97.30;;;;;;5029377;28;20172;-83
2021/10/17 07:20:51;;;;;;;9.67;4.90;;;8.60;97.30;;;;;;5024923;28;20186;-82
2021/10/17 07:23:18;;;;;;;9.77;5.10;;;8.80;97.30;;;;;;5024757;28;20520;-83
2021/10/17 07:25:43;;;;;;;9.73;4.70;;;8.90;97.30;;;;;;5029001;28;20426;-82
2021/10/17 07:28:09;;;;;;;9.70;4.40;;;9.00;97.30;;;;;;5036259;28;20801;-82
2021/10/17 07:30:35;;;;;;;6.83;4.10;;;9.10;97.30;;;;;;5035733;28;20190;-82
2021/10/17 07:33:00;;;;;;;7.03;4.50;;;9.20;97.30;;;;;;5038458;28;20278;-83
2021/10/17 07:35:26;;;;;;;7.77;3.97;;;9.20;97.30;;;;;;5036461;28;20559;-83
2021/10/17 07:37:52;;;;;;;23.87;6.70;;;9.20;97.30;;;;;;5035777;28;20249;-83
2021/10/17 07:40:17;;;;;;;12.90;4.67;;;9.30;97.30;;;;;;5036235;28;20179;-84
2021/10/17 07:42:43;;;;;;;9.53;4.97;;;9.40;97.30;;;;;;5035749;28;20266;-83
2021/10/17 07:45:09;;;;;;;5.63;4.40;;;9.50;97.30;;;;;;5036011;28;20195;-83
2021/10/17 07:47:35;;;;;;;10.30;5.00;;;9.60;97.30;;;;;;5035573;28;20172;-82
2021/10/17 07:50:02;;;;;;;9.93;4.13;;;9.70;97.30;;;;;;5037051;28;20902;-83
2021/10/17 07:52:28;;;;;;;11.57;4.60;;;9.70;97.30;;;;;;5033468;28;20407;-83
2021/10/17 07:54:54;;;;;;;7.73;4.50;;;9.80;97.30;;;;;;5017081;28;20439;-84
2021/10/17 07:57:19;;;;;;;7.90;3.90;;;9.90;97.30;;;;;;5016785;28;20192;-85
2021/10/17 07:59:45;;;;;;;5.83;3.80;;;10.00;97.30;;;;;;5016019;28;20184;-84
2021/10/17 08:02:10;;;;;;;16.53;4.00;;;10.00;97.30;;;;;;5016505;28;20191;-86
2021/10/17 08:04:40;;;;;;;9.80;4.37;;;10.00;97.30;;;;;;5016662;28;20208;-84
2021/10/17 08:07:06;;;;;;;14.30;4.70;;;10.00;97.30;;;;;;5021633;28;20204;-83
2021/10/17 08:09:32;;;;;;;8.70;4.50;;;10.00;97.30;;;;;;5032986;28;20963;-84
2021/10/17 08:11:58;;;;;;;10.90;3.90;;;10.10;97.30;;;;;;5033630;28;20797;-84
2021/10/17 08:14:24;;;;;;;7.13;3.77;;;10.20;97.30;;;;;;5023609;28;20439;-84
2021/10/17 08:16:49;;;;;;;8.83;4.27;;;10.20;97.30;;;;;;5016317;28;20419;-84
2021/10/17 08:19:15;;;;;;;8.37;3.60;;;10.40;97.30;;;;;;5016396;28;20188;-83
2021/10/17 08:21:41;;;;;;;8.30;3.70;;;10.50;97.30;;;;;;5015705;28;20252;-84
2021/10/17 08:24:06;;;;;;;11.47;4.50;;;10.60;97.30;;;;;;5016449;28;20831;-85
2021/10/17 08:26:33;;;;;;;7.97;3.43;;;10.70;97.30;;;;;;5016062;28;20176;-84
2021/10/17 08:28:58;;;;;;;8.90;3.90;;;10.80;97.30;;;;;;5015868;28;20231;-84
2021/10/17 08:31:24;;;;;;;6.17;3.57;;;10.80;97.30;;;;;;5016122;28;20423;-84
2021/10/17 08:33:50;;;;;;;6.73;3.30;;;10.90;97.30;;;;;;5015903;28;20204;-84
2021/10/17 08:36:16;;;;;;;9.20;4.60;;;11.00;97.30;;;;;;5015950;28;20430;-84
2021/10/17 08:38:42;;;;;;;8.83;3.57;;;11.10;97.30;;;;;;5015897;28;20195;-84
2021/10/17 08:41:08;;;;;;;6.77;3.23;;;11.20;97.30;;;;;;5034008;28;20271;-85
2021/10/17 08:43:33;;;;;;;6.80;3.80;;;11.20;97.30;;;;;;5015821;28;20604;-84
2021/10/17 08:45:59;;;;;;;6.80;3.30;;;11.30;97.30;;;;;;5016596;28;20172;-83
2021/10/17 08:48:31;;;;;;;8.13;3.43;;;11.40;97.30;;;;;;5015700;28;20646;-83
2021/10/17 08:50:58;;;;;;;8.27;3.97;;;11.40;97.30;;;;;;5015471;28;20191;-83
2021/10/17 08:53:24;;;;;;;9.67;3.80;;;11.50;97.30;;;;;;5015907;28;20480;-84
2021/10/17 08:55:50;;;;;;;8.17;3.03;;;11.50;97.30;;;;;;5016010;28;20423;-83
2021/10/17 08:58:15;;;;;;;7.23;3.10;;;11.60;97.30;;;;;;5015581;28;20722;-84
2021/10/17 09:00:41;;;;;;;8.70;4.00;;;11.60;96.80;;;;;;5016318;28;20184;-84
2021/10/17 09:03:06;;;;;;;7.20;3.20;;;11.70;96.60;;;;;;5017742;28;20218;-83
2021/10/17 09:05:36;;;;;;;8.67;3.10;;;11.70;96.70;;;;;;5017519;28;20205;-84
2021/10/17 09:08:03;;;;;;;9.07;3.87;;;11.70;96.80;;;;;;5033817;28;20362;-85
2021/10/17 09:10:28;;;;;;;8.50;3.93;;;11.70;96.10;;;;;;5017029;28;20422;-84
2021/10/17 09:13:06;;;;;;;11.40;3.80;;;11.70;96.00;;;;;;5019810;28;20506;-84
2021/10/17 09:15:32;;;;;;;11.57;3.30;;;11.80;96.60;;;;;;5021609;28;20207;-84
2021/10/17 09:18:21;;;;;;;8.70;3.30;;;11.90;96.10;;;;;;5021632;28;20411;-84
2021/10/17 09:20:46;;;;;;;4.90;2.80;;;12.00;95.50;;;;;;5021501;28;20160;-84
2021/10/17 09:23:22;;;;;;;6.03;3.57;;;12.10;95.90;;;;;;5020364;28;20543;-83
2021/10/17 09:25:52;;;;;;;6.47;3.30;;;12.20;95.60;;;;;;5037359;28;20191;-83
2021/10/17 09:28:29;;;;;;;6.37;3.17;;;12.40;94.60;;;;;;5019892;28;20484;-82
2021/10/17 09:31:07;;;;;;;6.73;3.37;;;12.40;94.20;;;;;;5019534;28;20422;-84
2021/10/17 09:33:33;;;;;;;5.60;2.47;;;12.50;94.40;;;;;;5020922;28;20461;-83
2021/10/17 09:35:59;;;;;;;9.20;3.10;;;12.60;94.00;;;;;;5038610;28;20415;-83
2021/10/17 09:38:37;;;;;;;8.20;3.27;;;12.70;92.80;;;;;;5025772;28;20502;-84
2021/10/17 09:41:19;;;;;;;11.73;4.07;;;12.70;92.70;;;;;;5020874;28;20212;-83
2021/10/17 09:43:51;;;;;;;8.87;3.40;;;12.70;93.10;;;;;;5020740;28;20474;-85
2021/10/17 09:46:17;;;;;;;7.50;3.67;;;12.80;92.10;;;;;;5021000;28;20491;-84
2021/10/17 09:48:43;;;;;;;6.53;3.30;;;12.80;91.90;;;;;;5020798;28;20470;-84
2021/10/17 09:51:17;;;;;;;6.93;4.20;;;12.90;91.60;;;;;;5021292;28;20517;-83
2021/10/17 09:53:46;;;;;;;9.03;3.60;;;12.90;91.60;;;;;;5019407;28;20448;-86
2021/10/17 09:56:34;;;;;;;5.70;2.77;;;12.90;90.20;;;;;;5019874;28;20936;-85
2021/10/17 09:59:06;;;;;;;7.30;3.40;;;13.00;91.60;;;;;;5020195;28;20427;-83
2021/10/17 10:01:34;;;;;;;5.80;3.20;;;13.10;92.20;;;;;;5020591;28;20422;-85
2021/10/17 10:04:01;;;;;;;7.73;3.30;;;13.30;90.50;;;;;;5031515;28;20469;-85
2021/10/17 10:06:28;;;;;;;6.83;3.53;;;13.20;88.30;;;;;;5039109;28;20406;-85
2021/10/17 10:09:06;;;;;;;8.07;3.13;;;13.10;88.80;;;;;;5039068;28;20422;-85
2021/10/17 10:11:33;;;;;;;5.80;3.10;;;13.10;90.00;;;;;;5035982;28;20429;-83
2021/10/17 10:14:08;;;;;;;4.10;2.80;;;13.10;90.00;;;;;;5041574;28;20445;-82
2021/10/17 10:16:35;;;;;;;5.93;3.60;;;13.10;90.20;;;;;;5028937;28;20465;-83
2021/10/17 10:19:07;;;;;;;10.30;3.80;;;13.20;89.50;;;;;;5023967;28;20421;-83
2021/10/17 10:21:34;;;;;;;5.17;2.70;;;13.30;89.90;;;;;;5031521;28;20427;-86
2021/10/17 10:24:06;;;;;;;8.13;3.60;;;13.30;90.50;;;;;;5021849;28;20465;-85
2021/10/17 10:26:33;;;;;;;6.87;4.37;;;13.40;89.60;;;;;;5029137;28;20497;-86
2021/10/17 10:29:00;;;;;;;12.20;3.70;;;13.40;89.30;;;;;;5029566;28;20506;-86
2021/10/17 10:31:45;;;;;;;7.73;3.80;;;13.40;89.40;;;;;;5038023;28;20415;-87
2021/10/17 10:34:36;;;;;;;8.73;3.60;;;13.30;88.30;;;;;;5040808;28;20446;-89
2021/10/17 10:37:26;;;;;;;6.17;3.03;;;13.30;88.50;;;;;;5040774;28;20701;-89
2021/10/17 10:40:05;;;;;;;6.00;2.83;;;13.40;88.60;;;;;;5041406;28;20793;-87
2021/10/17 10:42:48;;;;;;;17.53;5.10;;;13.40;88.40;;;;;;5041497;28;20425;-87
2021/10/17 10:45:21;;;;;;;9.23;3.63;;;13.30;88.50;;;;;;5041224;28;20442;-87
2021/10/17 10:47:48;;;;;;;7.73;3.50;;;13.30;89.20;;;;;;5040813;28;20911;-88
2021/10/17 10:50:15;;;;;;;14.90;4.37;;;13.30;89.30;;;;;;5041931;28;20987;-89
2021/10/17 10:52:44;;;;;;;10.13;3.97;;;13.30;90.10;;;;;;5060040;28;20446;-88
2021/10/17 10:55:56;;;;;;;5.10;2.97;;;13.20;90.90;;;;;;5040726;28;20435;-87
2021/10/17 10:58:35;;;;;;;12.77;4.03;;;13.10;90.10;;;;;;5016221;28;20946;-88
2021/10/17 11:01:02;;;;;;;11.40;4.37;;;13.00;90.50;;;;;;5021447;28;20422;-88
2021/10/17 11:03:42;;;;;;;8.80;3.20;;;13.00;90.70;;;;;;5020396;28;20459;-87
2021/10/17 11:06:17;;;;;;;84.00;31.27;;;13.00;91.50;;;;;;5023533;28;20395;-86
2021/10/17 11:09:02;;;;;;;15.17;6.37;;;13.00;91.50;;;;;;5022473;28;20430;-86
2021/10/17 11:11:39;;;;;;;6.73;3.80;;;13.00;91.10;;;;;;5023350;28;20498;-85
2021/10/17 11:14:15;;;;;;;10.53;4.17;;;12.90;91.40;;;;;;5024135;28;20455;-85
2021/10/17 11:16:40;;;;;;;5.30;3.93;;;12.90;91.30;;;;;;5022916;28;20442;-84
2021/10/17 11:19:08;;;;;;;9.67;4.37;;;12.80;91.70;;;;;;5023575;28;20944;-85
2021/10/17 11:21:37;;;;;;;8.90;3.40;;;12.80;91.80;;;;;;5024295;28;20228;-84
2021/10/17 11:24:03;;;;;;;12.20;4.53;;;12.80;91.80;;;;;;5023596;28;20482;-85
2021/10/17 11:26:29;;;;;;;8.43;5.03;;;12.90;91.70;;;;;;5023902;28;20416;-84
2021/10/17 11:28:55;;;;;;;6.40;3.43;;;13.10;91.00;;;;;;5025338;28;20426;-86
2021/10/17 11:31:24;;;;;;;6.03;3.57;;;13.40;90.10;;;;;;5018703;28;20415;-85
2021/10/17 11:33:50;;;;;;;8.57;3.27;;;13.80;90.30;;;;;;5019326;28;20200;-85
2021/10/17 11:36:18;;;;;;;9.40;3.90;;;14.00;89.10;;;;;;5021492;28;20510;-86
2021/10/17 11:38:46;;;;;;;9.53;4.30;;;14.30;89.70;;;;;;5036737;28;20475;-85
2021/10/17 11:41:14;;;;;;;5.13;3.50;;;14.50;88.70;;;;;;5018616;28;20418;-85
2021/10/17 11:43:46;;;;;;;12.03;4.07;;;14.60;88.60;;;;;;5018555;28;20454;-85
2021/10/17 11:46:17;;;;;;;11.87;4.73;;;14.50;87.70;;;;;;5018507;28;20407;-84
2021/10/17 11:48:44;;;;;;;6.07;4.03;;;14.60;89.10;;;;;;5018253;28;20415;-85
2021/10/17 11:51:16;;;;;;;9.70;4.80;;;14.60;87.60;;;;;;5020974;28;20419;-85
2021/10/17 11:53:43;;;;;;;6.63;3.63;;;14.50;87.40;;;;;;5018697;28;20426;-85
2021/10/17 11:56:11;;;;;;;16.57;4.40;;;14.40;87.20;;;;;;5036031;28;20807;-85
2021/10/17 12:01:17;;;;;;;11.47;3.93;;;14.40;88.60;;;;;;5101284;22;20871;-85
2021/10/17 12:04:17;;;;;;;6.20;4.40;;;14.50;88.70;;;;;;5035630;28;20465;-84
2021/10/17 12:07:07;;;;;;;9.50;4.10;;;14.60;88.50;;;;;;5015884;28;20495;-86
2021/10/17 12:10:18;;;;;;;5.70;3.70;;;14.60;89.20;;;;;;5014168;28;20440;-85
2021/10/17 12:12:44;;;;;;;118.80;43.20;;;14.70;89.40;;;;;;5042083;23;20494;-88
2021/10/17 12:15:14;;;;;;;61.53;19.40;;;14.60;88.90;;;;;;5023147;28;20427;-86
2021/10/17 12:17:40;;;;;;;117.63;32.87;;;14.50;89.20;;;;;;5047594;28;20415;-86
2021/10/17 12:20:11;;;;;;;60.93;22.80;;;14.40;90.00;;;;;;5053964;28;20445;-87
2021/10/17 12:22:42;;;;;;;14.40;5.80;;;14.40;90.00;;;;;;5056652;28;20426;-83
2021/10/17 12:25:08;;;;;;;16.80;8.00;;;14.30;89.80;;;;;;5056811;28;20450;-87
2021/10/17 12:27:38;;;;;;;6.23;4.37;;;14.20;90.00;;;;;;5053942;28;20417;-84
2021/10/17 12:30:06;;;;;;;31.33;10.50;;;14.20;90.60;;;;;;5052082;28;20419;-86
2021/10/17 12:32:55;;;;;;;23.10;9.50;;;14.20;90.80;;;;;;5045425;28;20445;-86
2021/10/17 12:35:35;;;;;;;10.87;5.00;;;14.10;90.30;;;;;;5047585;28;20414;-85
2021/10/17 12:38:34;;;;;;;35.03;16.00;;;14.10;90.10;;;;;;5052555;28;20405;-85
2021/10/17 12:41:07;;;;;;;18.07;5.43;;;14.10;90.70;;;;;;5045840;28;20806;-83
2021/10/17 12:43:44;;;;;;;24.27;12.13;;;13.90;89.80;;;;;;5054178;28;20978;-84
2021/10/17 12:46:27;;;;;;;19.00;7.30;;;13.90;90.00;;;;;;5051555;28;20433;-83
2021/10/17 12:48:55;;;;;;;13.17;4.83;;;14.10;91.60;;;;;;5049964;28;20419;-85
2021/10/17 12:52:13;;;;;;;6.90;4.03;;;14.30;90.90;;;;;;5052798;28;20410;-87